Terminal Aerodrome Forecast
Issued by NWS Boston, MA

Home | Current Version | Previous Version | Text Only | Print | Product List | Glossary On
Versions: 1 2 3 4 5 6 7 8 9 10 11 12 13 14 15 16 17 18 19 20 21 22 23 24 25 26 27 28 29 30 31 32 33 34 35 36 37 38 39 40 41 42 43 44 45 46
204
FTUS41 KBOX 031124
TAFBOS
TAF
KBOS 031124Z 0312/0418 00000KT 6SM -RA BR SCT008 OVC015
     FM031500 07004KT 6SM BR VCSH OVC020
     FM032000 08005KT P6SM VCSH OVC035
     FM040100 07005KT 6SM BR BKN045
     FM041500 06008KT P6SM VCSH BKN015=

USA.gov is the U.S. government's official web portal to all federal, state and local government web resources and services.